createdAt,value
2023-04-22T00:00:22.252Z,9.94
2023-04-22T00:01:22.603Z,9.94
2023-04-22T00:02:22.259Z,10.59
2023-04-22T00:03:22.535Z,10.59
2023-04-22T00:04:22.397Z,10.26
2023-04-22T00:05:22.209Z,9.94
2023-04-22T00:06:22.531Z,10.26
2023-04-22T00:07:22.160Z,10.91
2023-04-22T00:08:22.160Z,10.59
2023-04-22T00:09:22.159Z,8.65
2023-04-22T00:10:22.132Z,11.23
2023-04-22T00:11:22.461Z,10.59
2023-04-22T00:12:22.108Z,10.91
2023-04-22T00:13:22.103Z,12.84
2023-04-22T00:14:22.094Z,10.59
2023-04-22T00:15:22.078Z,9.94
2023-04-22T00:16:22.503Z,8.65
2023-04-22T00:18:47.539Z,10.59
2023-04-22T00:18:53.051Z,10.26
2023-04-22T00:19:53.061Z,8.97
2023-04-22T00:20:53.068Z,11.23
2023-04-22T00:21:53.007Z,9.94
2023-04-22T00:22:53.008Z,10.91
2023-04-22T00:23:52.991Z,8.01
2023-04-22T00:24:52.988Z,8.33
2023-04-22T00:25:53.310Z,11.55
2023-04-22T00:26:52.976Z,8.65
2023-04-22T00:27:52.955Z,10.26
2023-04-22T00:28:52.993Z,9.30
2023-04-22T00:29:52.926Z,10.59
2023-04-22T00:30:53.309Z,9.30
2023-04-22T00:31:53.007Z,10.59
2023-04-22T00:32:52.957Z,10.59
2023-04-22T00:33:52.889Z,10.26
2023-04-22T00:34:52.880Z,11.55
2023-04-22T00:35:53.246Z,10.26
2023-04-22T00:36:52.864Z,10.26
2023-04-22T00:37:52.843Z,10.91
2023-04-22T00:38:52.835Z,10.59
2023-04-22T00:39:52.819Z,10.59
2023-04-22T00:40:53.252Z,10.91
2023-04-22T00:41:52.804Z,10.59
2023-04-22T00:42:52.807Z,10.59
2023-04-22T00:43:52.788Z,10.59
2023-04-22T00:44:52.772Z,11.55
2023-04-22T00:45:53.424Z,10.59
2023-04-22T00:46:52.869Z,10.91
2023-04-22T00:47:52.795Z,10.59
2023-04-22T00:48:52.740Z,10.59
2023-04-22T00:49:52.719Z,10.26
2023-04-22T00:50:53.473Z,9.30
2023-04-22T00:51:52.698Z,10.26
2023-04-22T00:52:52.695Z,10.91
2023-04-22T00:53:52.678Z,9.94
2023-04-22T00:54:52.674Z,10.59
2023-04-22T00:55:53.340Z,8.65
2023-04-22T00:56:52.686Z,10.91
2023-04-22T00:57:52.654Z,10.91
2023-04-22T00:58:52.633Z,10.26
2023-04-22T00:59:52.623Z,10.26
2023-04-22T01:00:52.897Z,9.94
2023-04-22T01:01:52.684Z,9.94
2023-04-22T01:02:52.701Z,9.94
2023-04-22T01:03:53.151Z,10.26
2023-04-22T01:04:52.572Z,10.26
2023-04-22T01:05:53.310Z,9.94
2023-04-22T01:06:52.561Z,8.65
2023-04-22T01:07:52.538Z,10.26
2023-04-22T01:08:52.533Z,9.30
2023-04-22T01:09:52.522Z,9.62
2023-04-22T01:10:53.345Z,10.26
2023-04-22T01:11:52.495Z,10.26
2023-04-22T01:12:52.503Z,10.26
2023-04-22T01:13:52.474Z,10.91
2023-04-22T01:14:52.475Z,9.30
2023-04-22T01:15:53.058Z,9.62
2023-04-22T01:16:52.473Z,7.69
2023-04-22T01:17:52.507Z,9.62
2023-04-22T01:18:52.431Z,10.59
2023-04-22T01:19:52.418Z,9.94
2023-04-22T01:20:53.103Z,9.94
2023-04-22T01:21:52.400Z,9.94
2023-04-22T01:22:52.393Z,10.26
2023-04-22T01:23:52.376Z,9.94
2023-04-22T01:24:52.375Z,9.94
2023-04-22T01:25:53.142Z,9.94
2023-04-22T01:26:52.349Z,9.62
2023-04-22T01:27:52.334Z,9.94
2023-04-22T01:28:52.328Z,8.33
2023-04-22T01:29:52.329Z,9.62
2023-04-22T01:30:53.293Z,9.94
2023-04-22T01:31:52.362Z,8.33
2023-04-22T01:32:52.374Z,9.30
2023-04-22T01:33:52.276Z,9.94
2023-04-22T01:34:52.266Z,11.23
2023-04-22T01:35:52.565Z,8.97
2023-04-22T01:36:52.241Z,10.26
2023-04-22T01:37:52.235Z,10.26
2023-04-22T01:38:52.221Z,9.94
2023-04-22T01:39:52.210Z,9.62
2023-04-22T01:40:52.467Z,11.23
2023-04-22T01:41:52.188Z,10.26
2023-04-22T01:42:52.202Z,9.62
2023-04-22T01:43:52.159Z,9.62
2023-04-22T01:44:52.160Z,10.26
2023-04-22T01:45:52.483Z,9.94
2023-04-22T01:46:52.137Z,10.91
2023-04-22T01:47:52.168Z,11.23
2023-04-22T01:48:52.145Z,10.91
2023-04-22T01:49:52.102Z,9.30
2023-04-22T01:50:52.359Z,8.33
2023-04-22T01:51:52.080Z,8.33
2023-04-22T01:52:52.078Z,10.26
2023-04-22T01:53:52.065Z,9.62
2023-04-22T01:54:52.057Z,9.94
2023-04-22T01:55:52.509Z,9.62
2023-04-22T01:56:52.025Z,9.94
2023-04-22T01:57:52.018Z,9.94
2023-04-22T01:58:52.014Z,9.62
2023-04-22T01:59:51.996Z,9.62
2023-04-22T02:00:52.354Z,10.26
2023-04-22T02:01:52.062Z,5.75
2023-04-22T02:02:52.037Z,11.23
2023-04-22T02:03:52.071Z,9.62
2023-04-22T02:04:52.031Z,10.59
2023-04-22T02:05:52.350Z,9.62
2023-04-22T02:06:51.931Z,8.97
2023-04-22T02:07:51.911Z,9.62
2023-04-22T02:08:51.912Z,5.43
2023-04-22T02:09:51.890Z,11.23
2023-04-22T02:10:52.206Z,10.26
2023-04-22T02:11:51.867Z,9.62
2023-04-22T02:12:51.868Z,9.94
2023-04-22T02:13:51.849Z,9.62
2023-04-22T02:14:51.849Z,9.62
2023-04-22T02:15:51.891Z,10.91
2023-04-22T02:16:52.201Z,10.59
2023-04-22T02:17:51.811Z,10.26
2023-04-22T02:18:51.805Z,9.30
2023-04-22T02:19:51.839Z,8.65
2023-04-22T02:20:51.782Z,11.23
2023-04-22T02:21:52.088Z,9.62
2023-04-22T02:22:51.758Z,11.23
2023-04-22T02:23:51.746Z,10.26
2023-04-22T02:24:51.745Z,9.94
2023-04-22T02:25:51.730Z,10.26
2023-04-22T02:26:51.733Z,9.62
2023-04-22T02:27:51.709Z,10.26
2023-04-22T02:28:51.701Z,9.94
2023-04-22T02:29:51.691Z,9.30
2023-04-22T02:30:51.681Z,9.62
2023-04-22T02:31:52.098Z,9.94
2023-04-22T02:32:51.742Z,9.94
2023-04-22T02:33:51.653Z,9.94
2023-04-22T02:34:51.660Z,11.23
2023-04-22T02:35:51.627Z,8.97
2023-04-22T02:36:52.021Z,10.59
2023-04-22T02:37:51.607Z,9.94
2023-04-22T02:38:51.605Z,9.94
2023-04-22T02:39:51.579Z,8.33
2023-04-22T02:40:51.582Z,9.94
2023-04-22T02:41:51.914Z,9.94
2023-04-22T02:42:51.570Z,9.94
2023-04-22T02:43:51.555Z,10.26
2023-04-22T02:44:51.552Z,10.26
2023-04-22T02:45:51.523Z,8.01
2023-04-22T02:46:51.912Z,9.94
2023-04-22T02:47:51.535Z,8.65
2023-04-22T02:48:51.498Z,10.26
2023-04-22T02:49:51.485Z,9.94
2023-04-22T02:50:51.480Z,9.62
2023-04-22T02:51:51.801Z,11.23
2023-04-22T02:52:51.479Z,9.94
2023-04-22T02:53:51.439Z,10.26
2023-04-22T02:54:51.434Z,7.36
2023-04-22T02:55:51.437Z,10.26
2023-04-22T02:56:51.440Z,10.59
2023-04-22T02:57:51.407Z,10.59
2023-04-22T02:58:51.409Z,10.26
2023-04-22T02:59:51.384Z,9.94
2023-04-22T03:00:51.408Z,10.26
2023-04-22T03:01:51.730Z,10.26
2023-04-22T03:02:51.566Z,10.26
2023-04-22T03:03:51.506Z,8.65
2023-04-22T03:04:51.337Z,8.01
2023-04-22T03:05:51.314Z,9.94
2023-04-22T03:06:51.603Z,9.30
2023-04-22T03:07:51.307Z,9.94
2023-04-22T03:08:51.303Z,9.62
2023-04-22T03:09:51.293Z,10.59
2023-04-22T03:10:51.281Z,8.65
2023-04-22T03:11:51.793Z,10.26
2023-04-22T03:12:51.256Z,9.62
2023-04-22T03:13:51.259Z,9.62
2023-04-22T03:14:51.244Z,9.62
2023-04-22T03:15:51.230Z,9.94
2023-04-22T03:16:51.685Z,9.94
2023-04-22T03:17:51.282Z,10.59
2023-04-22T03:18:51.210Z,10.26
2023-04-22T03:19:51.195Z,8.97
2023-04-22T03:20:51.177Z,10.59
2023-04-22T03:21:51.529Z,9.94
2023-04-22T03:22:51.170Z,9.94
2023-04-22T03:23:51.153Z,9.94
2023-04-22T03:24:51.152Z,9.94
2023-04-22T03:25:51.140Z,8.01
2023-04-22T03:26:51.537Z,8.33
2023-04-22T03:27:51.136Z,9.62
2023-04-22T03:28:51.134Z,9.94
2023-04-22T03:29:51.053Z,9.94
2023-04-22T03:30:51.096Z,9.62
2023-04-22T03:31:51.428Z,9.62
2023-04-22T03:32:51.120Z,9.94
2023-04-22T03:33:51.082Z,8.65
2023-04-22T03:34:51.068Z,12.52
2023-04-22T03:35:51.056Z,8.97
2023-04-22T03:36:51.353Z,8.65
2023-04-22T03:37:51.006Z,8.65
2023-04-22T03:38:50.979Z,10.26
2023-04-22T03:39:51.030Z,10.26
2023-04-22T03:40:51.725Z,9.62
2023-04-22T03:41:51.316Z,10.26
2023-04-22T03:42:50.996Z,9.62
2023-04-22T03:43:50.997Z,10.91
2023-04-22T03:44:50.970Z,10.59
2023-04-22T03:45:50.963Z,10.26
2023-04-22T03:46:51.272Z,10.59
2023-04-22T03:47:50.965Z,8.97
2023-04-22T03:48:50.886Z,9.94
2023-04-22T03:49:50.877Z,9.62
2023-04-22T03:50:50.860Z,9.30
2023-04-22T03:51:51.196Z,10.59
2023-04-22T03:52:50.850Z,9.30
2023-04-22T03:53:50.842Z,10.26
2023-04-22T03:54:50.831Z,11.23
2023-04-22T03:55:50.819Z,10.26
2023-04-22T03:56:51.367Z,9.30
2023-04-22T03:57:50.808Z,9.62
2023-04-22T03:58:50.806Z,8.33
2023-04-22T03:59:50.789Z,8.33
2023-04-22T04:00:50.777Z,9.94
2023-04-22T04:01:51.110Z,9.62
2023-04-22T04:02:50.866Z,10.26
2023-04-22T04:03:50.885Z,9.30
2023-04-22T04:04:51.203Z,9.94
2023-04-22T04:05:50.770Z,10.26
2023-04-22T04:06:51.023Z,10.91
2023-04-22T04:07:50.713Z,9.94
2023-04-22T04:08:50.703Z,8.65
2023-04-22T04:09:50.708Z,9.94
2023-04-22T04:10:50.688Z,9.94
2023-04-22T04:11:51.047Z,11.23
2023-04-22T04:12:50.666Z,9.94
2023-04-22T04:13:50.671Z,10.26
2023-04-22T04:14:50.654Z,9.30
2023-04-22T04:15:50.683Z,10.59
2023-04-22T04:16:50.973Z,10.91
2023-04-22T04:17:50.758Z,10.26
2023-04-22T04:18:50.608Z,9.94
2023-04-22T04:19:50.612Z,9.94
2023-04-22T04:20:50.597Z,9.94
2023-04-22T04:21:50.963Z,10.59
2023-04-22T04:22:50.579Z,9.94
2023-04-22T04:23:50.575Z,9.62
2023-04-22T04:24:50.575Z,9.94
2023-04-22T04:25:50.557Z,10.26
2023-04-22T04:26:50.890Z,10.59
2023-04-22T04:27:50.536Z,8.65
2023-04-22T04:28:50.534Z,9.62
2023-04-22T04:29:50.528Z,9.94
2023-04-22T04:30:50.538Z,9.94
2023-04-22T04:31:50.993Z,9.94
2023-04-22T04:32:50.523Z,8.65
2023-04-22T04:33:50.484Z,10.26
2023-04-22T04:34:50.477Z,9.30
2023-04-22T04:35:50.469Z,9.62
2023-04-22T04:36:50.762Z,9.94
2023-04-22T04:37:50.453Z,8.65
2023-04-22T04:38:50.442Z,9.30
2023-04-22T04:39:50.437Z,9.30
2023-04-22T04:40:50.418Z,9.62
2023-04-22T04:41:50.716Z,10.26
2023-04-22T04:42:50.399Z,9.62
2023-04-22T04:43:50.395Z,9.62
2023-04-22T04:44:50.378Z,9.30
2023-04-22T04:45:50.373Z,10.91
2023-04-22T04:46:50.756Z,9.62
2023-04-22T04:47:50.377Z,9.94
2023-04-22T04:48:50.338Z,9.30
2023-04-22T04:49:50.343Z,9.62
2023-04-22T04:50:50.332Z,9.62
2023-04-22T04:51:50.613Z,9.94
2023-04-22T04:52:50.306Z,9.30
2023-04-22T04:53:50.299Z,9.94
2023-04-22T04:54:50.288Z,10.26
2023-04-22T04:55:50.287Z,8.01
2023-04-22T04:56:50.608Z,9.94
2023-04-22T04:57:50.266Z,9.94
2023-04-22T04:58:50.249Z,10.26
2023-04-22T04:59:50.251Z,8.65
2023-04-22T05:00:50.263Z,9.94
2023-04-22T05:01:50.648Z,9.94
2023-04-22T05:02:50.313Z,10.91
2023-04-22T05:03:50.382Z,9.30
2023-04-22T05:04:50.274Z,9.94
2023-04-22T05:05:50.205Z,10.26
2023-04-22T05:06:50.502Z,7.69
2023-04-22T05:07:50.186Z,9.94
2023-04-22T05:08:50.170Z,11.55
2023-04-22T05:09:50.165Z,10.59
2023-04-22T05:10:50.160Z,9.94
2023-04-22T05:11:50.405Z,9.62
2023-04-22T05:12:50.140Z,10.26
2023-04-22T05:13:50.136Z,10.26
2023-04-22T05:14:50.121Z,10.26
2023-04-22T05:15:50.115Z,10.26
2023-04-22T05:16:50.573Z,9.94
2023-04-22T05:17:50.151Z,9.94
2023-04-22T05:18:50.088Z,8.01
2023-04-22T05:19:50.090Z,9.94
2023-04-22T05:20:50.085Z,7.36
2023-04-22T05:21:50.463Z,10.59
2023-04-22T05:22:50.048Z,10.26
2023-04-22T05:23:50.040Z,10.26
2023-04-22T05:24:50.032Z,8.97
2023-04-22T05:25:52.056Z,10.91
2023-04-22T05:26:50.348Z,10.59
2023-04-22T05:27:50.002Z,10.59
2023-04-22T05:28:49.986Z,10.26
2023-04-22T05:29:49.984Z,10.26
2023-04-22T05:30:49.966Z,10.59
2023-04-22T05:31:50.319Z,10.59
2023-04-22T05:32:50.034Z,8.97
2023-04-22T05:33:49.941Z,10.59
2023-04-22T05:34:49.928Z,9.94
2023-04-22T05:35:49.916Z,11.55
2023-04-22T05:36:50.350Z,10.91
2023-04-22T05:37:49.931Z,10.59
2023-04-22T05:38:49.895Z,9.94
2023-04-22T05:39:49.872Z,9.94
2023-04-22T05:40:49.857Z,10.91
2023-04-22T05:41:49.855Z,11.55
2023-04-22T05:42:50.175Z,10.91
2023-04-22T05:43:49.826Z,11.55
2023-04-22T05:44:49.827Z,10.91
2023-04-22T05:45:49.830Z,10.91
2023-04-22T05:46:49.817Z,11.23
2023-04-22T05:47:49.833Z,10.91
2023-04-22T05:48:49.782Z,10.91
2023-04-22T05:49:49.775Z,11.55
2023-04-22T05:50:49.757Z,11.23
2023-04-22T05:51:49.741Z,10.91
2023-04-22T05:52:50.101Z,11.23
2023-04-22T05:53:49.762Z,11.23
2023-04-22T05:54:49.711Z,11.55
2023-04-22T05:55:49.704Z,11.23
2023-04-22T05:56:49.693Z,11.87
2023-04-22T05:57:49.849Z,11.23
2023-04-22T05:58:49.666Z,11.87
2023-04-22T05:59:49.665Z,11.23
2023-04-22T06:00:49.649Z,10.59
2023-04-22T06:01:49.645Z,11.55
2023-04-22T06:02:50.514Z,11.23
2023-04-22T06:03:49.805Z,12.52
2023-04-22T06:04:49.950Z,11.87
2023-04-22T06:05:49.692Z,11.55
2023-04-22T06:06:49.586Z,11.87
2023-04-22T06:07:49.926Z,11.87
2023-04-22T06:08:49.567Z,10.59
2023-04-22T06:09:49.565Z,11.87
2023-04-22T06:10:49.554Z,12.52
2023-04-22T06:11:49.545Z,13.16
2023-04-22T06:12:49.692Z,11.87
2023-04-22T06:13:49.520Z,12.20
2023-04-22T06:14:49.508Z,12.20
2023-04-22T06:15:49.525Z,12.20
2023-04-22T06:16:49.488Z,12.20
2023-04-22T06:17:50.335Z,12.52
2023-04-22T06:18:49.477Z,12.84
2023-04-22T06:19:49.453Z,12.20
2023-04-22T06:20:49.438Z,12.52
2023-04-22T06:21:49.430Z,12.52
2023-04-22T06:22:49.716Z,11.23
2023-04-22T06:23:49.406Z,12.84
2023-04-22T06:24:49.386Z,12.52
2023-04-22T06:25:49.392Z,12.52
2023-04-22T06:26:49.363Z,12.84
2023-04-22T06:27:49.870Z,11.23
2023-04-22T06:28:49.357Z,12.84
2023-04-22T06:29:49.336Z,12.84
2023-04-22T06:30:49.314Z,13.16
2023-04-22T06:31:49.425Z,12.52
2023-04-22T06:32:50.082Z,13.16
2023-04-22T06:33:49.291Z,12.84
2023-04-22T06:34:49.262Z,12.84
2023-04-22T06:35:49.271Z,11.87
2023-04-22T06:36:49.248Z,13.81
2023-04-22T06:37:49.551Z,12.20
2023-04-22T06:38:49.220Z,12.20
2023-04-22T06:39:49.232Z,12.20
2023-04-22T06:40:49.207Z,12.84
2023-04-22T06:41:49.201Z,12.84
2023-04-22T06:42:49.584Z,13.49
2023-04-22T06:43:49.169Z,13.16
2023-04-22T06:44:49.153Z,13.16
2023-04-22T06:45:49.145Z,13.81
2023-04-22T06:46:49.195Z,14.13
2023-04-22T06:47:49.993Z,12.84
2023-04-22T06:48:49.103Z,12.52
2023-04-22T06:49:49.101Z,13.16
2023-04-22T06:50:49.098Z,13.81
2023-04-22T06:51:49.089Z,12.52
2023-04-22T06:52:49.409Z,13.16
2023-04-22T06:53:49.057Z,12.84
2023-04-22T06:54:49.047Z,13.81
2023-04-22T06:55:49.037Z,10.91
2023-04-22T06:56:49.027Z,12.52
2023-04-22T06:57:49.328Z,13.16
2023-04-22T06:58:49.012Z,13.16
2023-04-22T06:59:49.000Z,13.49
2023-04-22T07:00:48.985Z,12.84
2023-04-22T07:01:49.038Z,14.13
2023-04-22T07:02:49.762Z,13.16
2023-04-22T07:03:49.033Z,11.87
2023-04-22T07:04:48.957Z,11.87
2023-04-22T07:05:48.930Z,14.45
2023-04-22T07:06:48.926Z,14.13
2023-04-22T07:07:49.303Z,12.20
2023-04-22T07:08:48.894Z,11.55
2023-04-22T07:09:48.898Z,13.16
2023-04-22T07:10:48.883Z,12.20
2023-04-22T07:11:48.866Z,13.49
2023-04-22T07:12:49.191Z,12.84
2023-04-22T07:13:48.849Z,13.49
2023-04-22T07:14:48.837Z,12.84
2023-04-22T07:15:48.826Z,13.81
2023-04-22T07:16:48.992Z,13.49
2023-04-22T07:17:49.584Z,13.49
2023-04-22T07:18:48.791Z,11.23
2023-04-22T07:19:48.789Z,13.49
2023-04-22T07:20:48.770Z,13.16
2023-04-22T07:21:48.766Z,13.49
2023-04-22T07:22:49.231Z,14.13
2023-04-22T07:23:48.778Z,13.81
2023-04-22T07:24:48.726Z,13.49
2023-04-22T07:25:48.722Z,13.49
2023-04-22T07:26:48.709Z,13.49
2023-04-22T07:27:49.132Z,14.13
2023-04-22T07:28:48.688Z,12.20
2023-04-22T07:29:48.692Z,13.49
2023-04-22T07:30:48.698Z,14.45
2023-04-22T07:31:48.688Z,13.49
2023-04-22T07:32:49.293Z,13.49
2023-04-22T07:33:48.644Z,13.49
2023-04-22T07:34:48.620Z,12.52
2023-04-22T07:35:48.634Z,13.81
2023-04-22T07:36:48.602Z,13.49
2023-04-22T07:37:48.851Z,13.81
2023-04-22T07:38:48.586Z,12.84
2023-04-22T07:39:48.576Z,15.10
2023-04-22T07:40:48.568Z,14.13
2023-04-22T07:41:48.557Z,14.45
2023-04-22T07:42:48.899Z,13.81
2023-04-22T07:43:48.535Z,14.13
2023-04-22T07:44:48.527Z,14.13
2023-04-22T07:45:48.523Z,14.13
2023-04-22T07:46:48.507Z,13.81
2023-04-22T07:47:48.824Z,13.81
2023-04-22T07:48:48.485Z,13.81
2023-04-22T07:49:48.466Z,13.49
2023-04-22T07:50:48.458Z,13.81
2023-04-22T07:51:48.448Z,13.49
2023-04-22T07:52:48.758Z,14.13
2023-04-22T07:53:48.436Z,13.81
2023-04-22T07:54:48.423Z,11.87
2023-04-22T07:55:48.411Z,13.81
2023-04-22T07:56:48.402Z,11.55
2023-04-22T07:57:48.753Z,13.49
2023-04-22T07:58:48.378Z,13.81
2023-04-22T07:59:48.367Z,14.13
2023-04-22T08:00:48.441Z,14.45
2023-04-22T08:01:48.349Z,13.81
2023-04-22T08:02:48.730Z,13.16
2023-04-22T08:03:48.646Z,13.16
2023-04-22T08:04:48.378Z,14.13
2023-04-22T08:05:48.303Z,14.45
2023-04-22T08:06:48.306Z,14.13
2023-04-22T08:07:48.622Z,12.84
2023-04-22T08:08:48.280Z,14.13
2023-04-22T08:09:48.268Z,14.13
2023-04-22T08:10:48.264Z,14.78
2023-04-22T08:11:48.249Z,14.13
2023-04-22T08:12:48.571Z,14.78
2023-04-22T08:13:48.237Z,17.35
2023-04-22T08:14:48.225Z,13.81
2023-04-22T08:15:48.289Z,14.78
2023-04-22T08:16:48.200Z,14.78
2023-04-22T08:17:48.297Z,15.10
2023-04-22T08:18:48.177Z,13.81
2023-04-22T08:19:48.167Z,14.78
2023-04-22T08:20:48.155Z,15.10
2023-04-22T08:21:48.146Z,14.78
2023-04-22T08:22:48.418Z,15.42
2023-04-22T08:23:48.137Z,14.78
2023-04-22T08:24:48.129Z,14.78
2023-04-22T08:25:48.107Z,14.78
2023-04-22T08:26:48.109Z,14.45
2023-04-22T08:27:48.571Z,14.78
2023-04-22T08:28:48.081Z,15.10
2023-04-22T08:29:48.063Z,14.78
2023-04-22T08:30:48.051Z,15.10
2023-04-22T08:31:48.060Z,14.78
2023-04-22T08:32:48.334Z,14.78
2023-04-22T08:33:48.017Z,15.10
2023-04-22T08:34:51.576Z,14.13
2023-04-22T08:35:47.994Z,16.39
2023-04-22T08:36:47.994Z,15.10
2023-04-22T08:37:48.297Z,14.78
2023-04-22T08:38:50.039Z,14.13
2023-04-22T08:39:47.954Z,14.78
2023-04-22T08:40:47.958Z,15.10
2023-04-22T08:41:47.935Z,15.42
2023-04-22T08:42:47.950Z,14.45
2023-04-22T08:43:47.918Z,14.45
2023-04-22T08:44:47.912Z,14.13
2023-04-22T08:45:47.892Z,13.81
2023-04-22T08:46:47.899Z,15.10
2023-04-22T08:47:48.875Z,15.42
2023-04-22T08:48:47.861Z,15.42
2023-04-22T08:49:47.870Z,15.42
2023-04-22T08:50:47.880Z,16.39
2023-04-22T08:51:47.835Z,15.42
2023-04-22T08:52:47.846Z,15.10
2023-04-22T08:53:47.814Z,16.06
2023-04-22T08:54:47.808Z,13.16
2023-04-22T08:55:47.793Z,15.10
2023-04-22T08:56:47.788Z,15.42
2023-04-22T08:57:48.125Z,16.71
2023-04-22T08:58:47.768Z,13.81
2023-04-22T08:59:47.749Z,14.45
2023-04-22T09:00:47.738Z,13.81
2023-04-22T09:01:47.749Z,15.42
2023-04-22T09:02:48.598Z,15.74
2023-04-22T09:03:47.769Z,16.39
2023-04-22T09:04:47.707Z,15.42
2023-04-22T09:05:47.693Z,15.74
2023-04-22T09:06:47.681Z,15.74
2023-04-22T09:07:47.996Z,15.42
2023-04-22T09:08:47.666Z,15.74
2023-04-22T09:09:47.647Z,15.74
2023-04-22T09:10:47.640Z,14.45
2023-04-22T09:11:47.630Z,15.74
2023-04-22T09:12:48.005Z,16.39
2023-04-22T09:13:47.608Z,14.45
2023-04-22T09:14:47.603Z,15.74
2023-04-22T09:15:47.592Z,15.10
2023-04-22T09:16:47.775Z,16.06
2023-04-22T09:17:47.610Z,13.81
2023-04-22T09:18:47.659Z,15.74
2023-04-22T09:19:47.579Z,14.45
2023-04-22T09:20:47.538Z,17.03
2023-04-22T09:21:49.892Z,15.74
2023-04-22T09:22:47.543Z,15.42
2023-04-22T09:23:47.506Z,16.39
2023-04-22T09:24:47.497Z,16.71
2023-04-22T09:25:47.482Z,16.39
2023-04-22T09:26:47.478Z,17.35
2023-04-22T09:27:48.110Z,16.39
2023-04-22T09:28:47.456Z,15.74
2023-04-22T09:29:47.441Z,16.71
2023-04-22T09:30:47.447Z,16.39
2023-04-22T09:31:47.447Z,16.39
2023-04-22T09:32:48.428Z,15.74
2023-04-22T09:33:49.551Z,16.06
2023-04-22T09:34:47.394Z,16.39
2023-04-22T09:35:47.386Z,16.39
2023-04-22T09:36:47.375Z,16.71
2023-04-22T09:37:49.553Z,14.45
2023-04-22T09:38:47.382Z,16.71
2023-04-22T09:39:48.664Z,16.39
2023-04-22T09:40:47.344Z,16.39
2023-04-22T09:41:47.328Z,16.39
2023-04-22T09:42:47.333Z,16.06
2023-04-22T09:43:47.302Z,14.45
2023-04-22T09:44:47.305Z,16.39
2023-04-22T09:45:47.312Z,17.03
2023-04-22T09:46:47.282Z,16.06
2023-04-22T09:47:47.467Z,16.71
2023-04-22T09:48:47.280Z,16.39
2023-04-22T09:49:47.244Z,16.39
2023-04-22T09:50:47.236Z,16.71
2023-04-22T09:51:49.343Z,13.81
2023-04-22T09:52:47.523Z,16.71
2023-04-22T09:53:47.204Z,17.03
2023-04-22T09:54:47.196Z,16.71
2023-04-22T09:55:47.190Z,18.00
2023-04-22T09:56:47.178Z,16.06
2023-04-22T09:57:47.518Z,16.39
2023-04-22T09:58:47.149Z,15.42
2023-04-22T09:59:47.134Z,17.35
2023-04-22T10:00:47.128Z,14.45
2023-04-22T10:01:47.152Z,17.35
2023-04-22T10:02:47.266Z,16.39
2023-04-22T10:03:47.108Z,16.39
2023-04-22T10:04:47.090Z,17.03
2023-04-22T10:05:47.088Z,16.39
2023-04-22T10:06:47.148Z,15.42
2023-04-22T10:07:47.240Z,15.74
2023-04-22T10:08:47.144Z,16.39
2023-04-22T10:09:47.118Z,16.71
2023-04-22T10:10:47.031Z,15.42
2023-04-22T10:11:47.383Z,16.06
2023-04-22T10:12:47.021Z,17.35
2023-04-22T10:13:46.997Z,17.68
2023-04-22T10:14:46.993Z,16.39
2023-04-22T10:15:46.977Z,16.71
2023-04-22T10:16:47.004Z,15.74
2023-04-22T10:17:47.026Z,16.39
2023-04-22T10:18:46.952Z,16.39
2023-04-22T10:19:46.938Z,17.35
2023-04-22T10:20:46.935Z,16.71
2023-04-22T10:21:46.920Z,17.03
2023-04-22T10:22:46.918Z,15.74
2023-04-22T10:23:46.887Z,16.71
2023-04-22T10:24:46.900Z,17.03
2023-04-22T10:25:46.874Z,17.03
2023-04-22T10:26:46.869Z,17.03
2023-04-22T10:27:46.856Z,15.42
2023-04-22T10:28:46.843Z,17.03
2023-04-22T10:29:46.836Z,17.03
2023-04-22T10:30:46.863Z,17.03
2023-04-22T10:31:46.818Z,17.03
2023-04-22T10:32:46.871Z,17.68
2023-04-22T10:33:46.783Z,17.03
2023-04-22T10:34:46.786Z,17.03
2023-04-22T10:35:46.768Z,17.35
2023-04-22T10:36:46.759Z,17.03
2023-04-22T10:37:46.760Z,17.03
2023-04-22T10:38:46.739Z,16.06
2023-04-22T10:39:46.729Z,17.35
2023-04-22T10:40:46.715Z,18.64
2023-04-22T10:41:46.700Z,18.32
2023-04-22T10:42:46.711Z,17.68
2023-04-22T10:43:46.691Z,17.68
2023-04-22T10:44:46.683Z,16.39
2023-04-22T10:45:46.659Z,18.00
2023-04-22T10:46:46.660Z,18.00
2023-04-22T10:47:46.663Z,17.68
2023-04-22T10:48:46.640Z,17.68
2023-04-22T10:49:46.629Z,15.42
2023-04-22T10:50:46.616Z,18.64
2023-04-22T10:51:46.612Z,18.00
2023-04-22T10:52:46.615Z,17.68
2023-04-22T10:53:46.588Z,18.00
2023-04-22T10:54:46.585Z,17.68
2023-04-22T10:55:46.560Z,17.68
2023-04-22T10:56:51.852Z,18.32
2023-04-22T10:57:46.939Z,18.32
2023-04-22T10:58:46.538Z,15.74
2023-04-22T11:00:53.980Z,17.68
2023-04-22T11:01:46.522Z,18.32
2023-04-22T11:02:46.743Z,17.35
2023-04-22T11:03:46.552Z,17.35
2023-04-22T11:04:46.494Z,17.68
2023-04-22T11:05:46.465Z,18.00
2023-04-22T11:06:46.456Z,17.68
2023-04-22T11:07:46.782Z,18.32
2023-04-22T11:08:46.452Z,18.00
2023-04-22T11:09:46.432Z,17.68
2023-04-22T11:10:46.482Z,18.00
2023-04-22T11:11:46.398Z,17.68
2023-04-22T11:12:46.720Z,17.03
2023-04-22T11:13:46.377Z,16.06
2023-04-22T11:14:46.387Z,17.03
2023-04-22T11:15:46.374Z,18.00
2023-04-22T11:16:46.444Z,17.35
2023-04-22T11:17:46.796Z,18.00
2023-04-22T11:18:46.335Z,18.64
2023-04-22T11:19:46.318Z,17.68
2023-04-22T11:20:46.315Z,19.29
2023-04-22T11:21:46.304Z,17.68
2023-04-22T11:22:46.816Z,18.32
2023-04-22T11:23:46.274Z,17.03
2023-04-22T11:24:46.272Z,18.00
2023-04-22T11:25:46.262Z,17.68
2023-04-22T11:26:46.253Z,18.32
2023-04-22T11:27:46.436Z,18.32
2023-04-22T11:28:46.232Z,18.64
2023-04-22T11:29:46.219Z,18.64
2023-04-22T11:30:46.216Z,16.39
2023-04-22T11:31:46.229Z,16.39
2023-04-22T11:32:46.603Z,18.96
2023-04-22T11:33:47.305Z,19.61
2023-04-22T11:34:46.171Z,18.32
2023-04-22T11:35:46.160Z,18.00
2023-04-22T11:36:46.156Z,18.32
2023-04-22T11:37:46.156Z,18.00
2023-04-22T11:38:46.125Z,18.32
2023-04-22T11:40:01.907Z,18.32
2023-04-22T11:40:47.228Z,16.39
2023-04-22T11:41:46.146Z,18.32
2023-04-22T11:42:46.122Z,18.32
2023-04-22T11:43:46.149Z,17.35
2023-04-22T11:44:46.070Z,18.32
2023-04-22T11:45:46.071Z,18.32
2023-04-22T11:46:46.056Z,18.64
2023-04-22T11:47:46.204Z,18.32
2023-04-22T11:48:46.029Z,18.32
2023-04-22T11:49:46.014Z,18.64
2023-04-22T11:50:46.009Z,18.32
2023-04-22T11:51:46.001Z,18.64
2023-04-22T11:52:46.016Z,18.00
2023-04-22T11:53:45.973Z,17.68
2023-04-22T11:54:45.965Z,18.96
2023-04-22T11:55:45.972Z,18.64
2023-04-22T11:56:45.969Z,18.32
2023-04-22T11:57:45.960Z,17.03
2023-04-22T11:58:45.920Z,18.96
2023-04-22T11:59:45.921Z,18.64
2023-04-22T12:00:45.904Z,18.32
2023-04-22T12:01:45.895Z,18.96
2023-04-22T12:02:46.130Z,18.96
2023-04-22T12:03:46.130Z,19.29
2023-04-22T12:04:46.198Z,19.93
2023-04-22T12:05:45.853Z,18.96
2023-04-22T12:06:45.835Z,20.25
2023-04-22T12:07:45.833Z,19.61
2023-04-22T12:08:45.819Z,19.29
2023-04-22T12:09:46.310Z,19.61
2023-04-22T12:10:45.798Z,19.61
2023-04-22T12:11:45.798Z,19.61
2023-04-22T12:12:45.782Z,18.96
2023-04-22T12:13:45.776Z,19.61
2023-04-22T12:14:46.059Z,19.61
2023-04-22T12:15:45.770Z,19.29
2023-04-22T12:16:45.834Z,19.61
2023-04-22T12:17:46.391Z,19.29
2023-04-22T12:18:45.719Z,19.61
2023-04-22T12:19:45.717Z,19.29
2023-04-22T12:20:45.708Z,20.25
2023-04-22T12:21:45.688Z,19.29
2023-04-22T12:22:46.046Z,20.25
2023-04-22T12:23:45.668Z,19.93
2023-04-22T12:24:45.655Z,20.25
2023-04-22T12:25:45.655Z,20.58
2023-04-22T12:26:45.648Z,20.25
2023-04-22T12:27:45.645Z,20.25
2023-04-22T12:28:45.631Z,20.58
2023-04-22T12:29:45.609Z,20.58
2023-04-22T12:30:45.613Z,20.58
2023-04-22T12:31:45.592Z,20.58
2023-04-22T12:32:45.794Z,20.90
2023-04-22T12:33:45.582Z,20.58
2023-04-22T12:34:45.562Z,20.90
2023-04-22T12:35:45.556Z,20.90
2023-04-22T12:36:45.534Z,19.29
2023-04-22T12:37:45.741Z,19.93
2023-04-22T12:38:45.527Z,18.32
2023-04-22T12:39:45.521Z,18.00
2023-04-22T12:40:45.499Z,20.58
2023-04-22T12:41:45.492Z,21.22
2023-04-22T12:43:06.933Z,20.58
2023-04-22T12:43:45.487Z,21.22
2023-04-22T12:44:45.458Z,19.93
2023-04-22T12:45:45.456Z,19.29
2023-04-22T12:46:45.475Z,19.93
2023-04-22T12:47:45.487Z,20.90
2023-04-22T12:48:45.418Z,20.25
2023-04-22T12:49:47.054Z,19.93
2023-04-22T12:50:45.406Z,20.90
2023-04-22T12:51:45.388Z,20.58
2023-04-22T12:52:45.848Z,20.25
2023-04-22T12:53:45.377Z,20.58
2023-04-22T12:54:45.353Z,20.58
2023-04-22T12:55:46.191Z,20.25
2023-04-22T12:56:45.343Z,20.90
2023-04-22T12:57:45.342Z,20.58
2023-04-22T12:58:45.655Z,19.93
2023-04-22T12:59:45.319Z,20.90